Latest Weather Observations for Shark Bay Airport

IDW60801

Issued at 6:03 pm WST Friday 30 September 2016 (issued every 30 minutes, with the page automatically refreshed every 10 minutes)

About weather observations | Map of weather stations | Latest weather observations for WA | Other Formats
Station Details ID: 006105 Name: SHARK BAY AIRPORT Lat: -25.89 Lon: 113.58 Height: 33.8 m
Data from the previous 72 hours. | See also: Recent months at Shark Bay Airport
Date/Time
WST
Temp
°C
App
Temp
°C
Dew
Point
°C
Rel
Hum
%
Delta-T
°C
Wind Press
QNH
hPa
Press
MSL
hPa
Rain since
9am
mm
Dir  Spd
km/h
Gust
km/h
Spd
kts
Gust
kts
30/06:00pm 18.4 14.1 9.5 56 4.7 SW 22 32 12 17 1011.2 1011.1 0.0
30/05:30pm 19.1 13.9 9.0 52 5.3 SW 26 35 14 19 1011.2 1011.1 0.0
30/05:00pm 20.1 15.4 9.1 49 5.8 SW 24 35 13 19 1011.0 1010.9 0.0
30/04:30pm 20.4 15.2 9.0 48 6.0 SW 26 39 14 21 1010.8 1010.7 0.0
30/04:00pm 21.1 16.3 8.7 45 6.6 SW 24 33 13 18 1010.8 1010.7 0.0
30/03:30pm 20.7 15.4 8.4 45 6.4 SW 26 35 14 19 1010.9 1010.8 0.0
30/03:00pm 22.0 17.6 8.9 43 7.0 SW 22 33 12 18 1011.0 1010.9 0.0
30/02:30pm 21.4 16.4 8.0 42 7.0 SW 24 33 13 18 1011.2 1011.1 0.0
30/02:00pm 21.2 16.1 7.8 42 7.0 SW 24 35 13 19 1011.3 1011.2 0.0
30/01:30pm 21.6 17.0 8.1 42 7.1 SW 22 35 12 19 1011.7 1011.6 0.0
30/01:00pm 21.2 17.0 8.1 43 6.8 SW 20 33 11 18 1011.9 1011.8 0.0
30/12:30pm 21.4 17.4 9.0 45 6.6 WSW 20 32 11 17 1012.2 1012.1 0.0
30/12:00pm 21.7 17.4 7.9 41 7.2 SW 20 30 11 16 1012.7 1012.6 0.0
30/11:30am 21.4 17.5 8.7 44 6.7 WSW 19 28 10 15 1013.1 1013.0 0.0
30/11:00am 20.6 16.2 7.2 42 6.9 SW 20 28 11 15 1013.3 1013.2 0.0
30/10:30am 20.4 16.2 8.1 45 6.4 SW 20 28 11 15 1013.6 1013.5 0.0
30/10:00am 20.2 16.0 8.2 46 6.2 SSW 20 30 11 16 1013.7 1013.6 0.0
30/09:30am 19.7 16.0 9.3 51 5.5 SSW 19 28 10 15 1013.7 1013.6 0.0
30/09:00am 19.0 15.8 9.8 55 4.9 S 17 24 9 13 1013.6 1013.5 0.0
30/08:30am 17.9 16.8 10.8 63 3.8 SE 7 11 4 6 1013.5 1013.4 0.0
30/08:00am 16.3 15.0 11.2 72 2.7 ENE 9 11 5 6 1013.4 1013.3 0.0
30/07:30am 14.1 12.8 11.1 82 1.6 ESE 9 11 5 6 1013.3 1013.2 0.0
30/07:00am 11.5 10.2 9.8 89 0.9 ESE 7 9 4 5 1013.2 1013.1 0.0
30/06:30am 9.7 7.9 7.8 88 0.9 ESE 7 7 4 4 1012.7 1012.6 0.0
30/06:00am 9.4 7.0 7.2 86 1.0 E 9 9 5 5 1012.2 1012.1 0.0
30/05:30am 10.2 8.4 8.0 86 1.1 SE 7 9 4 5 1012.1 1012.0 0.0
30/05:00am 10.3 8.5 7.9 85 1.2 SE 7 9 4 5 1011.9 1011.8 0.0
30/04:30am 10.6 8.4 8.0 84 1.3 SE 9 11 5 6 1011.8 1011.7 0.0
30/04:00am 10.8 8.6 7.9 82 1.4 SSE 9 11 5 6 1011.8 1011.7 0.0
30/03:30am 11.5 9.0 8.4 81 1.5 SSE 11 11 6 6 1011.8 1011.7 0.0
30/03:00am 12.0 9.3 9.0 82 1.5 SSE 13 15 7 8 1012.0 1011.9 0.0
30/02:30am 11.6 9.2 8.5 81 1.5 SSE 11 13 6 7 1012.1 1012.0 0.0
30/02:00am 11.6 9.1 8.1 79 1.7 SSE 11 13 6 7 1012.3 1012.2 0.0
30/01:30am 12.0 9.4 7.9 76 2.0 S 11 13 6 7 1012.2 1012.1 0.0
30/01:00am 12.9 10.4 8.2 73 2.3 S 11 15 6 8 1012.3 1012.2 0.0
30/12:30am 13.9 11.0 8.3 69 2.8 S 13 17 7 9 1012.7 1012.6 0.0
30/12:00am 14.7 11.1 8.4 66 3.2 S 17 22 9 12 1012.9 1012.8 0.0
 
Date/Time
WST
Temp
°C
App
Temp
°C
Dew
Point
°C
Rel
Hum
%
Delta-T
°C
Wind Press
QNH
hPa
Press
MSL
hPa
Rain since
9am
mm
Dir  Spd
km/h
Gust
km/h
Spd
kts
Gust
kts
29/11:30pm 15.2 11.2 8.4 64 3.4 S 19 26 10 14 1013.0 1012.9 0.0
29/11:00pm 15.2 11.2 8.4 64 3.4 S 19 28 10 15 1013.1 1013.0 0.0
29/10:30pm 15.6 11.8 9.1 65 3.3 S 19 28 10 15 1013.2 1013.1 0.0
29/10:00pm 15.7 12.3 9.1 65 3.4 S 17 24 9 13 1013.4 1013.3 0.0
29/09:30pm 16.0 12.1 8.5 61 3.8 S 19 28 10 15 1013.5 1013.4 0.0
29/09:00pm 16.3 12.2 8.5 60 4.0 S 20 28 11 15 1013.3 1013.2 0.0
29/08:30pm 16.7 12.0 7.9 56 4.4 SSW 22 30 12 16 1013.2 1013.1 0.0
29/08:00pm 17.2 11.3 7.5 53 4.9 SSW 28 39 15 21 1013.0 1012.9 0.0
29/07:30pm 17.5 11.6 7.3 51 5.1 SSW 28 39 15 21 1012.9 1012.8 0.0
29/07:00pm 18.2 11.3 6.4 46 5.9 SSW 32 41 17 22 1012.7 1012.6 0.0
29/06:30pm 18.6 13.0 7.1 47 5.8 SSW 26 35 14 19 1012.5 1012.4 0.0
29/06:00pm 19.7 13.3 7.1 44 6.4 SW 30 41 16 22 1012.4 1012.3 0.0
29/05:30pm 20.7 14.2 6.3 39 7.2 SW 30 39 16 21 1012.0 1011.9 0.0
29/05:00pm 21.6 14.3 4.7 33 8.3 SW 32 43 17 23 1011.9 1011.8 0.0
29/04:30pm 23.1 15.9 3.1 27 9.6 SW 30 39 16 21 1011.6 1011.5 0.0
29/04:00pm 24.8 18.2 -0.4 19 11.5 SW 24 30 13 16 1011.5 1011.4 0.0
29/03:30pm 25.0 18.1 -2.5 16 12.1 SSW 24 32 13 17 1011.7 1011.6 0.0
29/03:00pm 25.1 17.8 -2.5 16 12.1 SW 26 33 14 18 1012.2 1012.1 0.0
29/02:30pm 24.9 16.9 -2.6 16 12.1 SSW 30 37 16 20 1012.5 1012.4 0.0
29/02:00pm 24.6 17.0 -2.0 17 11.8 SSW 28 35 15 19 1013.0 1012.9 0.0
29/01:30pm 24.9 18.4 0.4 20 11.4 SW 24 35 13 19 1013.2 1013.1 0.0
29/01:00pm 25.8 20.5 1.8 21 11.5 S 19 35 10 19 1013.6 1013.5 0.0
29/12:30pm 25.5 20.2 -3.9 14 12.6 E 15 24 8 13 1014.2 1014.1 0.0
29/12:00pm 24.9 19.8 -1.8 17 11.9 ESE 15 20 8 11 1014.8 1014.7 0.0
29/11:30am 24.1 19.1 -0.9 19 11.2 SE 15 26 8 14 1015.2 1015.1 0.0
29/11:00am 23.1 17.7 -1.1 20 10.7 ESE 17 26 9 14 1015.7 1015.6 0.0
29/10:30am 22.4 16.6 -1.6 20 10.5 ESE 19 30 10 16 1016.1 1016.0 0.0
29/10:00am 21.3 15.4 -0.6 23 9.7 E 20 26 11 14 1016.4 1016.3 0.0
29/09:30am 20.3 14.1 -0.3 25 9.1 ESE 22 30 12 16 1016.7 1016.6 0.0
29/09:00am 19.4 12.5 0.4 28 8.4 E 26 35 14 19 1016.8 1016.7 0.0
29/08:30am 19.0 13.1 1.5 31 7.9 ESE 22 30 12 16 1017.0 1016.9 0.0
29/08:00am 17.6 12.2 2.4 36 6.9 ESE 20 30 11 16 1017.4 1017.3 0.0
29/07:30am 16.0 10.8 3.4 43 5.8 ESE 20 30 11 16 1017.1 1017.0 0.0
29/07:00am 12.5 8.2 5.4 62 3.3 ESE 17 20 9 11 1016.9 1016.8 0.0
29/06:30am 8.5 4.1 4.9 78 1.6 ESE 17 19 9 10 1017.0 1016.9 0.0
29/06:00am 7.4 4.0 4.2 80 1.4 SE 11 13 6 7 1016.9 1016.8 0.0
29/05:30am 7.5 3.4 4.5 81 1.3 SE 15 15 8 8 1016.5 1016.4 0.0
29/05:00am 7.6 3.9 4.6 81 1.3 SE 13 15 7 8 1016.2 1016.1 0.0
29/04:30am 8.3 4.7 5.1 80 1.4 SE 13 15 7 8 1016.2 1016.1 0.0
29/04:00am 9.2 5.7 5.6 78 1.6 SE 13 15 7 8 1016.0 1015.9 0.0
29/03:30am 10.0 6.2 6.0 76 1.8 SE 15 17 8 9 1016.1 1016.0 0.0
29/03:00am 10.6 7.3 6.2 74 2.0 SE 13 17 7 9 1016.4 1016.3 0.0
29/02:30am 11.5 7.5 6.8 73 2.2 SE 17 20 9 11 1016.2 1016.1 0.0
29/02:00am 11.2 7.8 7.5 78 1.8 SE 15 19 8 10 1016.6 1016.5 0.0
29/01:30am 10.7 7.7 7.8 82 1.4 SE 13 15 7 8 1016.8 1016.7 0.0
29/01:00am 10.8 8.2 7.7 81 1.5 SE 11 17 6 9 1017.2 1017.1 0.0
29/12:30am 11.6 8.7 8.1 79 1.7 SSE 13 17 7 9 1017.3 1017.2 0.0
29/12:00am 12.4 9.2 8.5 77 1.9 SSE 15 19 8 10 1017.4 1017.3 0.0
 
Date/Time
WST
Temp
°C
App
Temp
°C
Dew
Point
°C
Rel
Hum
%
Delta-T
°C
Wind Press
QNH
hPa
Press
MSL
hPa
Rain since
9am
mm
Dir  Spd
km/h
Gust
km/h
Spd
kts
Gust
kts
28/11:30pm 13.2 9.8 9.1 76 2.1 SSE 17 20 9 11 1017.5 1017.4 0.0
28/11:00pm 14.2 10.5 9.6 74 2.4 SSE 19 26 10 14 1017.6 1017.5 0.0
28/10:30pm 14.7 11.0 10.1 74 2.4 SSE 20 30 11 16 1017.6 1017.5 0.0
28/10:00pm 15.0 11.4 10.4 74 2.4 SSE 20 26 11 14 1017.9 1017.8 0.0
28/09:30pm 15.4 11.5 10.8 74 2.4 SSE 22 32 12 17 1017.9 1017.8 0.0
28/09:00pm 15.6 11.3 10.8 73 2.5 S 24 32 13 17 1017.8 1017.7 0.0
28/08:30pm 15.7 11.7 10.5 71 2.8 S 22 30 12 16 1017.8 1017.7 0.0
28/08:00pm 15.8 11.7 10.1 69 3.0 S 22 32 12 17 1017.8 1017.7 0.0
28/07:30pm 16.2 11.7 10.1 67 3.2 S 24 32 13 17 1017.8 1017.7 0.0
28/07:00pm 16.5 12.4 10.1 66 3.4 S 22 32 12 17 1017.8 1017.7 0.0
28/06:30pm 17.1 12.5 9.8 62 3.8 S 24 33 13 18 1017.8 1017.7 0.0
28/06:00pm 18.2 13.0 9.0 55 4.8 S 26 33 14 18 1017.6 1017.5 0.0
28/05:30pm 19.8 15.3 8.5 48 5.9 S 22 32 12 17 1017.5 1017.4 0.0
28/05:00pm 21.1 16.3 7.3 41 7.1 S 22 30 12 16 1017.2 1017.1 0.0
28/04:30pm 21.6 16.7 6.7 38 7.6 S 22 32 12 17 1017.1 1017.0 0.0
28/04:00pm 22.6 17.4 7.2 37 8.0 S 24 35 13 19 1017.0 1016.9 0.0
28/03:30pm 23.6 19.7 5.5 31 9.1 SE 15 30 8 16 1017.1 1017.0 0.0
28/03:00pm 23.3 19.1 5.7 32 8.9 SSE 17 32 9 17 1017.4 1017.3 0.0
28/02:30pm 23.1 18.2 4.1 29 9.3 SSE 19 28 10 15 1017.8 1017.7 0.0
28/02:00pm 23.1 18.7 4.6 30 9.1 SE 17 30 9 16 1018.2 1018.1 0.0
28/01:30pm 22.9 17.5 4.4 30 9.1 ESE 22 35 12 19 1018.5 1018.4 0.0
28/01:00pm 22.0 16.6 4.6 32 8.5 SE 22 37 12 20 1018.8 1018.8 0.0
28/12:30pm 21.7 16.1 5.2 34 8.2 SE 24 35 13 19 1019.4 1019.4 0.0
28/12:00pm 20.6 14.5 5.0 36 7.6 SE 26 39 14 21 1019.9 1019.9 0.0
28/11:30am 20.2 14.5 5.1 37 7.4 SE 24 37 13 20 1020.3 1020.3 0.0
28/11:00am 20.4 14.8 5.6 38 7.3 SSE 24 39 13 21 1020.6 1020.6 0.0
28/10:30am 20.2 13.5 5.4 38 7.3 SE 30 44 16 24 1020.9 1020.9 0.0
28/10:00am 18.8 10.9 4.6 39 6.8 SE 35 46 19 25 1021.3 1021.3 0.0
28/09:41am 18.4 10.9 4.2 39 6.7 SSE 33 52 18 28 1021.3 1021.3 0.0
28/09:30am 18.4 10.6 4.9 41 6.5 SSE 35 46 19 25 1021.4 1021.4 0.0
28/09:00am 17.9 11.2 5.5 44 6.0 SE 30 52 16 28 1021.4 1021.4 0.0
28/08:58am 17.9 11.6 5.5 44 6.0 SE 28 52 15 28 1021.4 1021.4 0.0
28/08:30am 17.2 10.4 4.9 44 5.9 SE 30 44 16 24 1021.1 1021.1 0.0
28/08:00am 16.7 9.4 5.3 47 5.4 SE 33 44 18 24 1021.1 1021.1 0.0
28/07:30am 16.1 8.7 5.1 48 5.2 SE 33 44 18 24 1020.6 1020.6 0.0
28/07:00am 15.0 9.7 6.8 58 4.0 SE 24 37 13 20 1020.3 1020.3 0.0
28/06:30am 14.5 9.9 6.3 58 3.9 SE 20 33 11 18 1019.9 1019.9 0.0
28/06:00am 13.7 8.9 5.6 58 3.8 SE 20 30 11 16 1019.6 1019.6 0.0
28/05:30am 13.6 8.5 6.0 60 3.6 SE 22 30 12 16 1019.2 1019.2 0.0
28/05:00am 14.1 8.7 6.5 60 3.7 SE 24 39 13 21 1018.8 1018.8 0.0
28/04:30am 14.1 10.1 6.7 61 3.6 SE 17 24 9 13 1018.5 1018.4 0.0
28/04:00am 14.6 10.2 7.4 62 3.5 SSE 20 30 11 16 1018.4 1018.3 0.0
28/03:30am 15.2 11.0 8.2 63 3.5 SE 20 26 11 14 1018.2 1018.1 0.0
28/03:00am 15.5 12.1 9.2 66 3.2 SSE 17 22 9 12 1018.3 1018.2 0.0
28/02:30am 15.5 12.1 10.5 72 2.6 SSE 19 28 10 15 1018.5 1018.4 0.0
28/02:00am 15.5 13.2 11.7 78 2.1 SSE 15 20 8 11 1018.6 1018.5 0.0
28/01:30am 15.2 12.9 11.6 79 1.9 SSE 15 19 8 10 1018.7 1018.6 0.0
28/01:00am 15.2 12.4 11.2 77 2.1 SSE 17 24 9 13 1018.7 1018.6 0.0
28/12:30am 16.5 13.5 11.9 74 2.5 SSE 19 33 10 18 1018.7 1018.6 0.0
28/12:00am 16.3 13.5 11.5 73 2.6 S 17 24 9 13 1018.6 1018.5 0.0
 
Date/Time
WST
Temp
°C
App
Temp
°C
Dew
Point
°C
Rel
Hum
%
Delta-T
°C
Wind Press
QNH
hPa
Press
MSL
hPa
Rain since
9am
mm
Dir  Spd
km/h
Gust
km/h
Spd
kts
Gust
kts
27/11:30pm 16.0 13.7 11.8 76 2.3 S 15 20 8 11 1018.7 1018.6 0.0
27/11:00pm 14.8 13.1 11.2 79 1.9 S 11 13 6 7 1018.7 1018.6 0.0
27/10:30pm 14.2 12.6 10.2 77 2.1 S 9 11 5 6 1018.5 1018.4 0.0
27/10:00pm 15.3 13.6 11.1 76 2.2 S 11 13 6 7 1018.5 1018.4 0.0
27/09:30pm 15.8 13.5 11.8 77 2.2 S 15 19 8 10 1018.6 1018.5 0.0
27/09:00pm 16.3 14.0 11.9 75 2.4 S 15 20 8 11 1018.5 1018.4 0.0
27/08:30pm 17.2 14.3 12.3 73 2.7 S 19 26 10 14 1018.2 1018.1 0.0
27/08:00pm 17.7 13.4 12.2 70 3.0 SSW 26 35 14 19 1017.9 1017.8 0.0
27/07:30pm 17.5 14.3 9.9 61 4.0 S 17 26 9 14 1017.8 1017.7 0.0
27/07:00pm 18.0 13.4 9.6 58 4.4 SSW 24 35 13 19 1017.6 1017.5 0.0
27/06:30pm 18.5 13.0 9.3 55 4.8 SSW 28 41 15 22 1017.3 1017.2 0.0

Other Formats:

Comma delimited format used in spreadsheet applications
http://www.bom.gov.au/fwo/IDW60801/IDW60801.95402.axf

JavaScript Object Notation format (JSON) in row-major order
http://www.bom.gov.au/fwo/IDW60801/IDW60801.95402.json